Time;durP1;ratioP1;P1;durP2;ratioP2;P2;SDS_P1;SDS_P2;PMS_P1;PMS_P2;Temp;Humidity;BMP_temperature;BMP_pressure;BME280_temperature;BME280_humidity;BME280_pressure;Samples;Min_cycle;Max_cycle;Signal;HPM_P1;HPM_P2
2022/03/12 00:00:07;;;;;;;10.48;5.45;;;8.20;66.90;;;;;;5104982;27;20051;-83
2022/03/12 00:02:34;;;;;;;10.35;5.53;;;7.90;66.10;;;;;;5105145;27;20039;-83
2022/03/12 00:05:00;;;;;;;11.45;5.85;;;8.00;66.20;;;;;;5104944;27;20061;-83
2022/03/12 00:07:27;;;;;;;10.15;5.15;;;8.40;66.80;;;;;;5105817;27;20484;-83
2022/03/12 00:09:54;;;;;;;9.85;5.60;;;8.50;66.70;;;;;;5141189;27;20055;-83
2022/03/12 00:12:21;;;;;;;13.25;5.68;;;7.80;66.70;;;;;;5104886;27;20039;-83
2022/03/12 00:14:48;;;;;;;9.27;5.22;;;7.80;67.10;;;;;;5123005;28;20046;-83
2022/03/12 00:17:15;;;;;;;10.55;5.65;;;7.80;66.30;;;;;;5140636;27;20530;-83
2022/03/12 00:19:42;;;;;;;9.95;5.55;;;7.80;66.70;;;;;;5105942;27;20100;-83
2022/03/12 00:22:08;;;;;;;8.50;5.45;;;7.80;66.20;;;;;;5105918;27;20397;-83
2022/03/12 00:24:35;;;;;;;8.50;5.60;;;8.00;66.80;;;;;;5122759;27;20101;-83
2022/03/12 00:27:01;;;;;;;6.90;4.88;;;7.70;66.40;;;;;;5122299;28;20050;-82
2022/03/12 00:29:27;;;;;;;9.73;5.28;;;7.70;66.70;;;;;;5120521;22;20066;-82
2022/03/12 00:31:54;;;;;;;9.38;5.55;;;7.80;67.00;;;;;;5120005;22;20047;-82
2022/03/12 00:34:20;;;;;;;8.55;5.20;;;8.10;67.40;;;;;;5106698;28;20401;-82
2022/03/12 00:36:47;;;;;;;9.57;5.75;;;7.60;67.20;;;;;;5074494;22;20143;-82
2022/03/12 00:39:14;;;;;;;9.25;5.60;;;8.20;67.80;;;;;;5073620;22;20059;-82
2022/03/12 00:41:42;;;;;;;9.27;5.72;;;7.60;67.70;;;;;;5091917;22;20052;-82
2022/03/12 00:44:09;;;;;;;9.65;5.45;;;7.50;67.40;;;;;;5100043;22;20511;-82
2022/03/12 00:46:35;;;;;;;10.63;5.35;;;7.50;67.70;;;;;;5072997;22;20048;-82
2022/03/12 00:49:00;;;;;;;8.32;5.10;;;7.40;67.50;;;;;;5080080;22;20047;-82
2022/03/12 00:51:26;;;;;;;9.55;5.28;;;8.10;68.00;;;;;;5107127;22;20139;-83
2022/03/12 00:53:52;;;;;;;10.98;5.50;;;7.40;67.60;;;;;;5069206;22;20053;-82
2022/03/12 00:56:18;;;;;;;11.43;5.03;;;7.40;67.40;;;;;;5061927;28;20044;-82
2022/03/12 00:58:45;;;;;;;9.32;5.20;;;7.40;67.70;;;;;;5089490;22;20498;-82
2022/03/12 01:01:12;;;;;;;11.23;5.50;;;7.30;67.70;;;;;;5085742;22;20047;-82
2022/03/12 01:03:40;;;;;;;8.25;4.85;;;8.00;67.90;;;;;;5087728;22;20057;-82
2022/03/12 01:06:06;;;;;;;11.25;5.25;;;7.30;67.90;;;;;;5106835;22;20051;-82
2022/03/12 01:08:36;;;;;;;12.35;5.82;;;7.30;67.90;;;;;;5094986;22;20053;-82
2022/03/12 01:11:06;;;;;;;8.10;5.07;;;8.10;68.50;;;;;;5093334;22;20039;-82
2022/03/12 01:13:32;;;;;;;10.00;5.00;;;7.80;68.20;;;;;;5116164;22;20047;-82
2022/03/12 01:15:58;;;;;;;11.18;5.22;;;8.10;68.30;;;;;;5152244;22;20069;-82
2022/03/12 01:18:24;;;;;;;12.10;5.63;;;7.30;67.60;;;;;;5112320;22;20077;-82
2022/03/12 01:20:51;;;;;;;10.65;5.50;;;7.30;67.60;;;;;;5120672;22;20181;-82
2022/03/12 01:23:18;;;;;;;10.75;5.25;;;7.50;67.70;;;;;;5084196;22;20056;-82
2022/03/12 01:25:46;;;;;;;11.38;5.72;;;7.30;68.00;;;;;;5082059;22;20502;-82
2022/03/12 01:28:14;;;;;;;9.82;5.18;;;7.20;67.80;;;;;;5082403;22;20052;-82
2022/03/12 01:30:44;;;;;;;8.45;5.25;;;7.20;68.20;;;;;;5083847;22;20473;-82
2022/03/12 01:33:11;;;;;;;9.30;5.43;;;7.20;68.10;;;;;;5114207;22;20061;-82
2022/03/12 01:35:40;;;;;;;7.82;4.93;;;7.20;67.80;;;;;;5089395;22;20075;-82
2022/03/12 01:38:07;;;;;;;9.05;5.30;;;6.70;68.00;;;;;;5107337;27;20108;-82
2022/03/12 01:40:36;;;;;;;8.40;5.55;;;7.60;68.20;;;;;;5115633;22;20134;-83
2022/03/12 01:43:04;;;;;;;9.73;5.57;;;7.20;68.50;;;;;;5103218;22;20083;-82
2022/03/12 01:45:29;;;;;;;10.32;5.18;;;7.10;68.50;;;;;;5080046;22;20521;-82
2022/03/12 01:47:58;;;;;;;10.02;5.40;;;7.10;68.30;;;;;;5088341;22;20048;-82
2022/03/12 01:50:30;;;;;;;11.55;5.28;;;7.80;68.80;;;;;;5091647;22;20044;-82
2022/03/12 01:53:00;;;;;;;10.80;5.55;;;7.20;69.10;;;;;;5072954;22;20064;-82
2022/03/12 01:55:30;;;;;;;9.43;5.30;;;7.20;68.60;;;;;;5077023;22;20116;-82
2022/03/12 01:58:01;;;;;;;12.18;6.00;;;7.10;68.50;;;;;;5073563;22;20053;-82
2022/03/12 02:00:29;;;;;;;9.57;4.78;;;7.10;68.40;;;;;;5083209;22;20125;-82
2022/03/12 02:02:56;;;;;;;9.25;5.38;;;7.10;68.50;;;;;;5104185;22;20528;-82
2022/03/12 02:05:27;;;;;;;10.43;5.10;;;6.80;68.60;;;;;;5081698;22;20052;-82
2022/03/12 02:07:54;;;;;;;9.13;5.55;;;7.60;69.00;;;;;;5075486;22;20059;-82
2022/03/12 02:10:21;;;;;;;9.38;4.93;;;7.60;68.80;;;;;;5072697;22;20068;-82
2022/03/12 02:12:47;;;;;;;11.35;5.47;;;7.20;69.30;;;;;;5075531;22;20079;-82
2022/03/12 02:15:13;;;;;;;9.75;5.50;;;6.80;68.30;;;;;;5089671;22;20109;-82
2022/03/12 02:17:40;;;;;;;11.00;5.45;;;7.40;69.70;;;;;;5090761;22;20057;-83
2022/03/12 02:20:06;;;;;;;12.90;5.25;;;7.10;68.80;;;;;;5120045;22;20055;-82
2022/03/12 02:22:38;;;;;;;13.50;5.22;;;7.10;68.90;;;;;;5122908;22;20107;31
2022/03/12 02:25:05;;;;;;;10.18;6.07;;;7.90;69.80;;;;;;5080626;22;20109;-82
2022/03/12 02:27:30;;;;;;;9.75;5.57;;;7.00;69.10;;;;;;5082516;22;20483;-82
2022/03/12 02:30:00;;;;;;;9.27;5.55;;;7.50;69.60;;;;;;5082391;22;20056;-82
2022/03/12 02:32:26;;;;;;;10.43;5.40;;;7.20;69.70;;;;;;5066404;28;20044;-82
2022/03/12 02:34:53;;;;;;;8.63;5.75;;;6.90;69.50;;;;;;5088392;22;20160;-82
2022/03/12 02:37:32;;;;;;;9.60;5.88;;;7.80;69.80;;;;;;5082147;22;20076;-82
2022/03/12 02:40:07;;;;;;;10.57;5.38;;;6.60;69.70;;;;;;5088691;22;20062;-83
2022/03/12 02:42:34;;;;;;;10.32;5.70;;;6.90;69.40;;;;;;5089467;22;20110;-82
2022/03/12 02:45:00;;;;;;;10.38;4.93;;;6.90;69.50;;;;;;5081948;22;20104;-82
2022/03/12 02:47:29;;;;;;;8.82;5.10;;;7.60;70.20;;;;;;5087674;22;20049;-82
2022/03/12 02:49:58;;;;;;;10.75;5.80;;;7.30;70.00;;;;;;5079596;22;20039;-81
2022/03/12 02:52:27;;;;;;;8.77;5.00;;;7.60;70.30;;;;;;5067084;28;20054;-81
2022/03/12 02:54:54;;;;;;;11.40;5.40;;;6.90;69.40;;;;;;5068393;28;20501;-81
2022/03/12 02:57:26;;;;;;;9.02;5.40;;;7.10;70.20;;;;;;5069780;28;20182;-81
2022/03/12 03:00:04;;;;;;;10.75;5.50;;;6.90;70.10;;;;;;5074911;28;20040;-81
2022/03/12 03:02:40;;;;;;;9.32;5.30;;;6.90;70.30;;;;;;5073639;28;20097;-81
2022/03/12 03:05:16;;;;;;;8.70;5.53;;;7.70;70.30;;;;;;5070607;28;20040;-81
2022/03/12 03:07:45;;;;;;;11.50;5.78;;;7.00;70.20;;;;;;5067029;28;20051;-81
2022/03/12 03:10:28;;;;;;;10.65;5.40;;;7.00;71.00;;;;;;5066842;28;20087;-81
2022/03/12 03:12:54;;;;;;;9.93;5.47;;;7.10;70.80;;;;;;5065932;28;20078;-81
2022/03/12 03:15:20;;;;;;;9.95;5.78;;;7.10;70.70;;;;;;5066180;28;20044;-81
2022/03/12 03:17:47;;;;;;;8.23;5.20;;;7.70;70.50;;;;;;5067599;28;20044;-81
2022/03/12 03:20:13;;;;;;;9.68;5.53;;;7.30;69.80;;;;;;5068579;28;20559;-81
2022/03/12 03:22:39;;;;;;;10.85;5.70;;;8.00;70.10;;;;;;5067455;28;20044;-81
2022/03/12 03:25:04;;;;;;;10.10;5.65;;;7.30;69.00;;;;;;5084058;28;20072;-81
2022/03/12 03:27:30;;;;;;;9.60;5.85;;;7.40;68.80;;;;;;5083147;28;20445;-81
2022/03/12 03:29:56;;;;;;;9.35;5.65;;;8.00;68.70;;;;;;5065812;28;20131;-81
2022/03/12 03:32:22;;;;;;;9.90;5.88;;;7.50;68.70;;;;;;5065581;28;20467;-80
2022/03/12 03:34:47;;;;;;;10.73;5.53;;;8.00;68.50;;;;;;5065790;28;20052;-80
2022/03/12 03:37:13;;;;;;;8.88;5.03;;;7.50;67.80;;;;;;5065347;28;20044;-80
2022/03/12 03:39:40;;;;;;;10.50;5.25;;;7.50;67.70;;;;;;5066014;28;20032;-81
2022/03/12 03:42:05;;;;;;;10.88;5.85;;;7.50;67.90;;;;;;5065713;28;20040;-81
2022/03/12 03:44:31;;;;;;;9.45;5.10;;;7.50;68.10;;;;;;5064898;28;20383;-81
2022/03/12 03:46:58;;;;;;;9.63;5.70;;;7.80;67.80;;;;;;5065830;28;20471;-81
2022/03/12 03:49:24;;;;;;;9.20;5.85;;;7.50;68.20;;;;;;5083399;28;20055;-81
2022/03/12 03:51:58;;;;;;;10.00;5.60;;;8.00;68.90;;;;;;5065481;28;20052;-81
2022/03/12 03:54:24;;;;;;;11.18;5.50;;;7.90;69.40;;;;;;5065277;28;20040;-81
2022/03/12 03:56:50;;;;;;;11.48;6.15;;;7.50;70.40;;;;;;5082070;28;20061;-81
2022/03/12 03:59:16;;;;;;;9.63;5.75;;;7.40;71.20;;;;;;5065336;28;20131;-81
2022/03/12 04:01:42;;;;;;;9.52;5.85;;;7.40;72.40;;;;;;5082032;28;20040;-80
2022/03/12 04:04:12;;;;;;;12.48;6.15;;;7.30;73.90;;;;;;5065224;28;20141;-81
2022/03/12 04:06:38;;;;;;;9.90;5.78;;;8.00;74.90;;;;;;5065046;28;20513;-81
2022/03/12 04:09:04;;;;;;;9.40;6.18;;;7.20;75.70;;;;;;5082106;28;20101;-81
2022/03/12 04:11:30;;;;;;;10.48;6.28;;;7.80;78.30;;;;;;5081625;28;20437;-81
2022/03/12 04:13:58;;;;;;;12.13;6.50;;;7.10;79.60;;;;;;5065336;28;20048;-81
2022/03/12 04:16:24;;;;;;;11.30;7.00;;;7.40;82.70;;;;;;5065249;28;20052;-81
2022/03/12 04:18:50;;;;;;;13.02;7.20;;;6.90;86.00;;;;;;5065652;28;20055;-81
2022/03/12 04:21:20;;;;;;;9.80;6.45;;;7.30;90.10;;;;;;5081767;28;20410;-81
2022/03/12 04:23:46;;;;;;;13.32;7.00;;;6.80;92.10;;;;;;5063791;28;20048;-80
2022/03/12 04:26:13;;;;;;;12.45;7.47;;;6.80;96.00;;;;;;5064830;28;20043;-81
2022/03/12 04:28:39;;;;;;;12.30;7.03;;;6.40;99.90;;;;;;5064441;28;20117;-81
2022/03/12 04:31:06;;;;;;;12.90;7.70;;;7.20;99.90;;;;;;5065233;28;20529;-81
2022/03/12 04:33:32;;;;;;;14.18;7.47;;;6.40;99.90;;;;;;5065231;28;20055;-81
2022/03/12 04:36:00;;;;;;;16.50;7.40;;;6.40;99.90;;;;;;5065287;28;20040;-81
2022/03/12 04:38:27;;;;;;;14.20;7.20;;;7.00;99.90;;;;;;5064878;28;20047;-81
2022/03/12 04:40:56;;;;;;;12.55;7.13;;;6.30;99.90;;;;;;5064820;28;20048;-81
2022/03/12 04:43:26;;;;;;;12.52;7.65;;;6.60;99.90;;;;;;5081274;28;20052;-81
2022/03/12 04:45:52;;;;;;;13.05;7.75;;;6.20;99.90;;;;;;5064868;28;20391;-81
2022/03/12 04:48:23;;;;;;;16.35;7.80;;;6.20;99.90;;;;;;5064725;28;20044;-81
2022/03/12 04:50:52;;;;;;;15.80;7.15;;;6.80;99.90;;;;;;5081403;28;20080;-81
2022/03/12 04:53:18;;;;;;;13.90;7.00;;;6.20;99.90;;;;;;5073079;28;20116;-81
2022/03/12 04:55:45;;;;;;;13.20;7.55;;;6.10;99.90;;;;;;5080741;28;20039;-82
2022/03/12 04:58:11;;;;;;;12.90;8.10;;;6.70;99.90;;;;;;5077529;28;20132;-81
2022/03/12 05:00:40;;;;;;;13.55;8.38;;;6.60;99.90;;;;;;5069226;28;20036;-81
2022/03/12 05:03:11;;;;;;;14.88;7.93;;;6.40;99.90;;;;;;5085689;28;20047;-81
2022/03/12 05:05:41;;;;;;;13.02;7.65;;;6.50;99.90;;;;;;5068895;28;20040;-81
2022/03/12 05:08:18;;;;;;;14.10;7.82;;;6.50;99.90;;;;;;5068664;28;20534;-81
2022/03/12 05:10:51;;;;;;;13.65;7.10;;;5.90;99.90;;;;;;5069063;28;20044;-81
2022/03/12 05:13:27;;;;;;;12.50;7.35;;;5.90;99.90;;;;;;5052993;28;20142;-81
2022/03/12 05:15:55;;;;;;;14.00;8.00;;;5.90;99.90;;;;;;5068699;28;20044;-81
2022/03/12 05:18:23;;;;;;;13.07;8.00;;;5.80;99.90;;;;;;5068829;28;20387;-82
2022/03/12 05:20:50;;;;;;;14.55;7.47;;;6.00;99.90;;;;;;5084452;28;20044;-82
2022/03/12 05:23:17;;;;;;;13.32;7.35;;;6.20;99.90;;;;;;5084977;28;20043;-82
2022/03/12 05:25:45;;;;;;;13.55;8.05;;;5.80;99.90;;;;;;5068376;28;20104;-83
2022/03/12 05:28:15;;;;;;;13.30;7.55;;;6.50;99.90;;;;;;5067679;28;20043;-82
2022/03/12 05:30:45;;;;;;;12.73;7.72;;;5.80;99.90;;;;;;5068128;28;20130;-80
2022/03/12 05:33:12;;;;;;;14.35;7.43;;;6.00;99.90;;;;;;5085082;28;20389;-81
2022/03/12 05:35:40;;;;;;;13.80;7.45;;;6.20;99.90;;;;;;5084577;28;20044;-80
2022/03/12 05:38:06;;;;;;;14.05;7.40;;;5.70;99.90;;;;;;5068134;28;20044;-80
2022/03/12 05:40:37;;;;;;;13.40;7.38;;;5.70;99.90;;;;;;5068310;28;20031;-80
2022/03/12 05:43:03;;;;;;;13.65;8.02;;;5.80;99.90;;;;;;5084294;28;20044;-80
2022/03/12 05:45:28;;;;;;;13.05;7.55;;;6.30;99.90;;;;;;5067661;28;20127;-81
2022/03/12 05:47:54;;;;;;;12.20;7.53;;;5.70;99.90;;;;;;5083932;28;20075;-80
2022/03/12 05:50:21;;;;;;;12.60;7.30;;;5.70;99.90;;;;;;5068790;28;20048;-80
2022/03/12 05:52:48;;;;;;;13.15;7.30;;;5.70;99.90;;;;;;5084790;28;20051;-81
2022/03/12 05:55:16;;;;;;;12.77;7.65;;;6.10;99.90;;;;;;5068051;28;20097;-80
2022/03/12 05:57:42;;;;;;;12.02;7.18;;;5.90;99.90;;;;;;5067992;28;20159;-80
2022/03/12 06:00:12;;;;;;;13.75;7.15;;;5.70;99.90;;;;;;5068205;28;20068;-81
2022/03/12 06:02:49;;;;;;;12.43;6.90;;;5.70;99.90;;;;;;5067173;28;20122;-80
2022/03/12 06:05:18;;;;;;;14.00;7.32;;;6.30;99.90;;;;;;5067929;28;20040;-81
2022/03/12 06:07:45;;;;;;;21.75;8.00;;;5.70;99.90;;;;;;5067457;28;20471;-81
2022/03/12 06:10:15;;;;;;;13.68;7.07;;;6.60;99.90;;;;;;5067347;28;20051;-81
2022/03/12 06:12:43;;;;;;;16.08;7.55;;;5.60;99.90;;;;;;5067430;28;20040;-82
2022/03/12 06:15:16;;;;;;;11.95;6.93;;;5.80;99.90;;;;;;5067556;28;20048;-81
2022/03/12 06:17:43;;;;;;;13.82;6.85;;;5.80;99.90;;;;;;5084258;28;20052;-81
2022/03/12 06:20:12;;;;;;;12.15;7.15;;;5.90;99.90;;;;;;5079480;22;20040;-82
2022/03/12 06:22:40;;;;;;;11.80;6.85;;;5.90;99.90;;;;;;5089164;22;20414;-83
2022/03/12 06:25:12;;;;;;;13.07;7.15;;;6.00;99.90;;;;;;5112453;22;20079;-82
2022/03/12 06:27:39;;;;;;;15.80;6.60;;;6.50;99.90;;;;;;5092474;22;20094;-83
2022/03/12 06:30:08;;;;;;;13.23;6.60;;;6.40;99.90;;;;;;5102094;22;20071;-82
2022/03/12 06:32:37;;;;;;;12.25;6.72;;;6.00;99.90;;;;;;5084688;22;20470;-82
2022/03/12 06:35:03;;;;;;;12.43;6.95;;;6.10;99.90;;;;;;5101491;22;20119;-82
2022/03/12 06:37:36;;;;;;;11.65;6.97;;;6.10;99.90;;;;;;5078741;22;20076;-83
2022/03/12 06:40:02;;;;;;;12.63;7.50;;;6.90;99.90;;;;;;5111985;22;20402;-82
2022/03/12 06:42:33;;;;;;;12.00;6.95;;;6.00;99.90;;;;;;5118026;22;20043;-83
2022/03/12 06:44:58;;;;;;;12.45;7.07;;;6.50;99.90;;;;;;5104735;22;20329;-83
2022/03/12 06:47:29;;;;;;;11.88;6.90;;;6.10;99.90;;;;;;5098104;22;20064;-83
2022/03/12 06:49:57;;;;;;;14.30;7.57;;;6.60;99.90;;;;;;5074501;22;20522;-82
2022/03/12 06:52:23;;;;;;;14.43;7.30;;;6.20;99.90;;;;;;5070541;22;20119;-82
2022/03/12 06:54:51;;;;;;;13.75;7.65;;;6.20;99.90;;;;;;5075404;22;20044;-83
2022/03/12 06:57:17;;;;;;;12.63;7.55;;;6.70;99.90;;;;;;5114666;22;20044;-82
2022/03/12 06:59:42;;;;;;;13.68;6.95;;;6.80;99.90;;;;;;5129373;22;20143;-83
2022/03/12 07:02:08;;;;;;;14.27;7.43;;;7.00;99.90;;;;;;5095473;22;20048;-82
2022/03/12 07:04:35;;;;;;;12.80;7.05;;;6.60;99.90;;;;;;5092251;22;20052;-82
2022/03/12 07:07:04;;;;;;;12.95;7.25;;;6.60;99.90;;;;;;5095238;22;20070;-82
2022/03/12 07:09:36;;;;;;;14.00;7.50;;;7.30;99.90;;;;;;5082204;22;20063;-83
2022/03/12 07:12:03;;;;;;;12.85;7.35;;;6.80;99.90;;;;;;5116567;22;20062;-82
2022/03/12 07:14:36;;;;;;;13.88;7.45;;;6.80;99.90;;;;;;5116520;22;20039;-83
2022/03/12 07:17:02;;;;;;;13.27;6.70;;;6.50;99.90;;;;;;5113573;22;20050;-82
2022/03/12 07:19:34;;;;;;;11.85;7.10;;;7.00;99.90;;;;;;5085015;22;20060;-83
2022/03/12 07:22:01;;;;;;;15.05;7.30;;;7.10;99.90;;;;;;5111578;22;20047;-82
2022/03/12 07:24:26;;;;;;;12.57;7.45;;;7.70;99.90;;;;;;5090217;22;20098;-83
2022/03/12 07:26:52;;;;;;;13.55;7.32;;;7.20;99.90;;;;;;5085342;22;20049;-83
2022/03/12 07:29:18;;;;;;;14.35;7.65;;;7.70;99.90;;;;;;5100238;22;20041;-82
2022/03/12 07:31:43;;;;;;;12.23;7.03;;;7.70;99.90;;;;;;5090069;22;20491;-83
2022/03/12 07:34:09;;;;;;;12.63;7.50;;;7.70;99.90;;;;;;5095011;22;20048;-83
2022/03/12 07:36:35;;;;;;;13.50;7.80;;;7.50;99.90;;;;;;5081832;22;20094;-83
2022/03/12 07:39:03;;;;;;;14.32;7.10;;;7.50;99.90;;;;;;5119491;22;20039;-82
2022/03/12 07:41:36;;;;;;;12.82;7.78;;;7.50;99.90;;;;;;5079780;22;20061;-83
2022/03/12 07:44:02;;;;;;;12.57;7.53;;;7.60;99.90;;;;;;5051203;22;1269197;-82
2022/03/12 07:46:27;;;;;;;14.02;7.95;;;8.00;99.90;;;;;;5090405;22;20442;-83
2022/03/12 07:48:53;;;;;;;13.05;7.20;;;8.60;99.90;;;;;;5087737;22;20431;-82
2022/03/12 07:51:19;;;;;;;13.65;7.70;;;8.30;99.90;;;;;;5091327;22;20060;-83
2022/03/12 07:53:44;;;;;;;15.18;7.47;;;7.90;99.90;;;;;;5071290;22;20139;-83
2022/03/12 07:56:10;;;;;;;13.38;7.72;;;7.90;99.90;;;;;;5063230;28;20139;-82
2022/03/12 07:58:37;;;;;;;15.50;8.13;;;8.00;99.90;;;;;;5117567;22;20077;-83
2022/03/12 08:01:03;;;;;;;15.57;8.32;;;8.50;99.90;;;;;;5124127;22;20137;-83
2022/03/12 08:03:36;;;;;;;18.17;8.30;;;8.70;99.90;;;;;;5114488;22;20039;-83
2022/03/12 08:06:06;;;;;;;13.82;7.72;;;8.60;99.90;;;;;;5112424;22;20061;-83
2022/03/12 08:08:32;;;;;;;17.83;9.23;;;8.40;99.90;;;;;;5106999;27;20058;-83
2022/03/12 08:13:44;;;;;;;13.63;8.40;;;8.80;99.90;;;;;;5087565;22;20518;-83
2022/03/12 08:16:13;;;;;;;14.23;7.78;;;8.60;99.90;;;;;;5074647;22;20048;-83
2022/03/12 08:18:39;;;;;;;15.20;7.88;;;9.00;99.90;;;;;;5066819;28;20087;-83
2022/03/12 08:21:05;;;;;;;14.43;8.32;;;9.40;99.90;;;;;;5070488;22;20041;-83
2022/03/12 08:23:31;;;;;;;16.05;8.50;;;9.30;99.90;;;;;;5074374;22;20052;-83
2022/03/12 08:25:57;;;;;;;15.68;12.82;;;9.20;99.90;;;;;;5075322;22;20132;-83
2022/03/12 08:28:23;;;;;;;13.95;7.80;;;9.40;99.90;;;;;;5070733;22;20063;-83
2022/03/12 08:30:49;;;;;;;14.52;8.00;;;8.90;99.90;;;;;;5063062;28;20045;-83
2022/03/12 08:33:15;;;;;;;13.48;7.90;;;9.40;99.90;;;;;;5074203;22;20574;-83
2022/03/12 08:35:41;;;;;;;12.00;7.80;;;9.70;99.90;;;;;;5100404;28;20040;-83
2022/03/12 08:38:07;;;;;;;13.57;8.20;;;9.50;99.90;;;;;;5066619;28;20070;-83
2022/03/12 08:43:04;;;;;;;13.93;8.18;;;9.40;99.90;;;;;;5131712;22;20050;-83
2022/03/12 08:45:30;;;;;;;11.77;7.55;;;9.70;99.90;;;;;;5097064;22;20052;-83
2022/03/12 08:47:56;;;;;;;13.30;7.40;;;9.90;99.90;;;;;;5074509;22;20399;-83
2022/03/12 08:50:24;;;;;;;12.20;7.68;;;9.80;99.90;;;;;;5081619;22;20055;-83
2022/03/12 08:52:50;;;;;;;13.90;7.82;;;10.20;99.90;;;;;;5084158;22;20075;-83
2022/03/12 08:55:15;;;;;;;12.98;7.47;;;9.80;99.90;;;;;;5081309;22;20056;-83
2022/03/12 08:57:41;;;;;;;13.68;7.70;;;10.20;99.90;;;;;;5100560;22;20065;-83
2022/03/12 09:00:09;;;;;;;14.90;7.88;;;10.30;99.90;;;;;;5107261;28;20119;-83
2022/03/12 09:02:36;;;;;;;14.60;7.85;;;9.80;99.90;;;;;;5106445;28;20040;-83
2022/03/12 09:05:05;;;;;;;13.32;7.68;;;10.50;99.90;;;;;;5107667;28;20468;-83
2022/03/12 09:07:31;;;;;;;12.60;7.70;;;10.00;99.90;;;;;;5096381;22;20060;-83
2022/03/12 09:09:57;;;;;;;13.23;7.78;;;10.60;99.90;;;;;;5079907;28;20060;-83
2022/03/12 09:12:23;;;;;;;12.13;7.50;;;10.70;99.90;;;;;;5072423;22;20163;-83
2022/03/12 09:14:50;;;;;;;13.77;7.65;;;10.20;99.90;;;;;;5066503;28;20075;-83
2022/03/12 09:17:15;;;;;;;13.80;7.93;;;10.30;99.90;;;;;;5080405;22;20638;-83
2022/03/12 09:19:41;;;;;;;13.63;7.55;;;10.30;99.90;;;;;;5069923;22;20057;-83
2022/03/12 09:22:07;;;;;;;13.10;7.47;;;10.80;99.90;;;;;;5088422;22;20082;-82
2022/03/12 09:24:32;;;;;;;13.57;8.13;;;10.40;99.90;;;;;;5129468;28;20047;-82
2022/03/12 09:26:59;;;;;;;13.30;7.75;;;10.40;99.90;;;;;;5131462;28;20047;-82
2022/03/12 09:29:26;;;;;;;15.13;7.72;;;10.50;99.90;;;;;;5130996;28;20051;-82
2022/03/12 09:31:52;;;;;;;11.98;7.70;;;10.60;99.90;;;;;;5130908;28;20127;-82
2022/03/12 09:34:18;;;;;;;12.68;7.63;;;10.60;99.90;;;;;;5130536;28;20043;-82
2022/03/12 09:36:44;;;;;;;13.98;7.68;;;10.90;99.90;;;;;;5113661;28;20043;-82
2022/03/12 09:39:10;;;;;;;12.07;7.45;;;11.30;99.90;;;;;;5114647;28;20047;-82
2022/03/12 09:41:38;;;;;;;11.77;7.70;;;11.10;99.90;;;;;;5131184;27;20047;-82
2022/03/12 09:44:05;;;;;;;12.60;7.32;;;10.80;99.90;;;;;;5134920;27;20507;-82
2022/03/12 09:46:31;;;;;;;12.55;7.43;;;11.00;99.90;;;;;;5117474;27;20039;-82
2022/03/12 09:48:56;;;;;;;15.43;7.45;;;11.00;99.90;;;;;;5134482;27;20054;-82
2022/03/12 09:51:25;;;;;;;13.88;7.45;;;11.00;99.90;;;;;;5134669;27;20043;-82
2022/03/12 09:53:51;;;;;;;13.23;7.80;;;11.20;99.90;;;;;;5116274;27;20043;-82
2022/03/12 09:56:17;;;;;;;13.77;7.90;;;11.30;99.90;;;;;;5117783;27;20064;-82
2022/03/12 09:58:43;;;;;;;13.70;7.68;;;11.30;99.90;;;;;;5116229;27;20128;-82
2022/03/12 10:01:11;;;;;;;11.50;7.53;;;11.40;99.90;;;;;;5116447;27;20031;-82
2022/03/12 10:03:42;;;;;;;11.48;6.95;;;11.50;99.90;;;;;;5134315;27;20050;-82
2022/03/12 10:06:07;;;;;;;11.23;7.20;;;11.50;99.90;;;;;;5132437;27;20196;-81
2022/03/12 10:08:33;;;;;;;16.08;7.65;;;11.70;99.90;;;;;;5133885;27;20047;-81
2022/03/12 10:10:59;;;;;;;12.23;7.38;;;11.70;99.90;;;;;;5110444;27;20050;-82
2022/03/12 10:13:25;;;;;;;12.27;7.40;;;12.00;99.90;;;;;;5126215;27;20043;-82
2022/03/12 10:15:51;;;;;;;10.75;6.70;;;11.80;99.90;;;;;;5108719;27;20072;-82
2022/03/12 10:18:17;;;;;;;10.57;6.75;;;12.00;99.90;;;;;;5109372;27;20053;-82
2022/03/12 10:20:43;;;;;;;14.55;7.18;;;12.10;99.90;;;;;;5108789;27;20355;-83
2022/03/12 10:23:10;;;;;;;12.40;7.40;;;12.50;99.90;;;;;;5107401;27;20073;-83
2022/03/12 10:25:38;;;;;;;13.75;7.10;;;12.20;99.90;;;;;;5123474;27;20050;-83
2022/03/12 10:28:04;;;;;;;12.35;6.75;;;12.50;99.90;;;;;;5123785;27;20076;-83
2022/03/12 10:30:29;;;;;;;12.40;6.80;;;12.30;99.90;;;;;;5124517;27;20039;-82
2022/03/12 10:32:55;;;;;;;13.90;6.68;;;12.40;99.90;;;;;;5113837;27;20055;-82
2022/03/12 10:35:22;;;;;;;12.77;6.95;;;12.50;99.90;;;;;;5115843;27;20046;-83
2022/03/12 10:37:50;;;;;;;9.82;5.57;;;12.60;99.90;;;;;;5132738;27;20058;-83
2022/03/12 10:40:24;;;;;;;9.63;4.93;;;12.70;99.90;;;;;;5132732;27;20035;-83
2022/03/12 10:42:58;;;;;;;10.38;4.88;;;12.80;99.90;;;;;;5117378;27;20035;-82
2022/03/12 10:45:38;;;;;;;8.77;4.30;;;12.80;99.90;;;;;;5116007;27;20379;-83
2022/03/12 10:48:05;;;;;;;8.63;4.25;;;12.90;99.90;;;;;;5113376;27;20059;-83
2022/03/12 10:50:40;;;;;;;7.10;4.53;;;13.00;99.90;;;;;;5124180;27;20048;-82
2022/03/12 10:53:07;;;;;;;8.60;4.63;;;13.20;99.90;;;;;;5103679;27;20054;-82
2022/03/12 10:55:39;;;;;;;7.75;4.60;;;13.10;99.90;;;;;;5122264;27;20043;-83
2022/03/12 10:58:26;;;;;;;7.07;4.22;;;13.60;99.90;;;;;;5105188;27;20051;-82
2022/03/12 11:00:57;;;;;;;10.68;4.45;;;13.40;99.90;;;;;;5105069;27;20533;-82
2022/03/12 11:03:29;;;;;;;7.70;3.50;;;13.40;99.90;;;;;;5105848;27;20043;-82
2022/03/12 11:05:56;;;;;;;9.98;4.10;;;13.50;99.90;;;;;;5122223;27;20197;-82
2022/03/12 11:08:23;;;;;;;9.60;4.30;;;13.60;99.90;;;;;;5122230;27;20511;-82
2022/03/12 11:11:00;;;;;;;8.10;4.03;;;13.50;99.90;;;;;;5120030;28;20044;-82
2022/03/12 11:13:40;;;;;;;9.07;4.10;;;13.60;99.90;;;;;;5120346;28;20127;-83
2022/03/12 11:16:07;;;;;;;9.23;4.65;;;13.60;99.90;;;;;;5117671;28;20059;-82
2022/03/12 11:18:34;;;;;;;8.25;3.75;;;13.60;99.90;;;;;;5101293;28;20042;-82
2022/03/12 11:21:00;;;;;;;7.43;3.65;;;13.50;99.90;;;;;;5118147;28;20050;-82
2022/03/12 11:23:30;;;;;;;8.55;3.97;;;13.70;99.90;;;;;;5117483;28;20135;-82
2022/03/12 11:26:04;;;;;;;7.72;3.28;;;13.80;99.90;;;;;;5120053;28;20417;-82
2022/03/12 11:28:30;;;;;;;6.68;3.30;;;13.80;99.90;;;;;;5101383;28;20054;-81
2022/03/12 11:30:56;;;;;;;8.75;3.45;;;13.90;99.90;;;;;;5100526;28;20047;-82
2022/03/12 11:33:25;;;;;;;7.45;3.90;;;13.90;99.90;;;;;;5118832;28;20478;-82
2022/03/12 11:36:01;;;;;;;7.45;3.50;;;13.90;99.90;;;;;;5119240;28;20050;-82
2022/03/12 11:38:28;;;;;;;5.50;3.03;;;13.80;99.90;;;;;;5102738;28;20039;-82
2022/03/12 11:41:03;;;;;;;6.22;3.20;;;13.90;99.90;;;;;;5102071;28;20044;-82
2022/03/12 11:43:32;;;;;;;7.20;3.47;;;13.90;99.90;;;;;;5119604;28;20069;-82
2022/03/12 11:46:03;;;;;;;6.47;2.97;;;13.90;99.90;;;;;;5102506;28;20035;-82
2022/03/12 11:48:34;;;;;;;6.07;3.30;;;13.80;99.90;;;;;;5120533;28;20048;-82
2022/03/12 11:51:01;;;;;;;6.03;3.10;;;13.80;99.90;;;;;;5119499;28;20390;-82
2022/03/12 11:53:36;;;;;;;8.63;3.45;;;13.90;99.90;;;;;;5125256;28;20038;-82
2022/03/12 11:56:04;;;;;;;6.25;3.47;;;13.80;99.90;;;;;;5137476;27;20039;-82
2022/03/12 11:58:32;;;;;;;6.03;3.50;;;13.80;99.90;;;;;;5133645;28;20081;-82
2022/03/12 12:00:57;;;;;;;6.78;3.22;;;13.90;99.90;;;;;;5104322;28;20039;-82
2022/03/12 12:03:23;;;;;;;7.13;3.42;;;13.80;99.90;;;;;;5121088;28;20047;-81
2022/03/12 12:05:49;;;;;;;8.23;3.38;;;14.50;99.90;;;;;;5103241;28;20054;-82
2022/03/12 12:08:15;;;;;;;7.75;3.67;;;14.10;99.90;;;;;;5102232;28;20042;-82
2022/03/12 12:10:42;;;;;;;6.20;3.13;;;13.90;99.90;;;;;;5122084;28;20085;-82
2022/03/12 12:13:18;;;;;;;7.63;3.53;;;14.00;99.90;;;;;;5119479;28;20051;-82
2022/03/12 12:15:46;;;;;;;7.22;2.97;;;14.00;99.90;;;;;;5103207;28;20050;-82
2022/03/12 12:18:12;;;;;;;8.10;3.40;;;14.10;99.90;;;;;;5120275;28;20100;-82
2022/03/12 12:20:39;;;;;;;6.72;3.63;;;14.10;99.90;;;;;;5103508;28;20040;-82
2022/03/12 12:23:06;;;;;;;5.97;3.10;;;14.20;99.90;;;;;;5104683;28;20213;-82
2022/03/12 12:25:34;;;;;;;5.25;3.05;;;14.20;99.90;;;;;;5106145;27;20086;-81
2022/03/12 12:28:12;;;;;;;6.20;3.40;;;14.20;99.90;;;;;;5125301;28;20046;-82
2022/03/12 12:30:42;;;;;;;7.40;3.95;;;14.20;99.90;;;;;;5107957;27;20043;-82
2022/03/12 12:33:24;;;;;;;7.03;3.38;;;14.40;99.90;;;;;;5124129;28;20043;-82
2022/03/12 12:36:14;;;;;;;8.10;3.92;;;14.30;99.90;;;;;;5106777;28;20071;-82
2022/03/12 12:38:43;;;;;;;7.57;4.43;;;14.40;99.90;;;;;;5124275;28;20483;-82
2022/03/12 12:41:10;;;;;;;11.02;5.90;;;14.40;99.90;;;;;;5107667;28;20046;-82
2022/03/12 12:43:45;;;;;;;9.25;5.95;;;15.20;99.90;;;;;;5122957;28;20134;-81
2022/03/12 12:46:17;;;;;;;15.00;6.20;;;14.80;99.90;;;;;;5106070;28;20056;-82
2022/03/12 12:48:48;;;;;;;10.63;5.95;;;14.80;99.90;;;;;;5141952;28;20281;-80
2022/03/12 12:51:15;;;;;;;8.73;5.70;;;15.10;99.90;;;;;;5107085;28;20039;-82
2022/03/12 12:53:46;;;;;;;9.25;6.05;;;15.20;99.90;;;;;;5123663;28;20043;-82
2022/03/12 12:56:31;;;;;;;10.40;5.93;;;15.10;99.90;;;;;;5123679;28;20050;-81